Istanbul, Turkey

2:18 PM EEST on September 30, 2016 (GMT +0300)
Ataturk | | Change Station

Elev 121 ft 40.98 °N, 28.81 °E | Updated 28 minutes ago

Partly Cloudy
Partly Cloudy
77 °F
Feels Like 77 °F
N
7
Wind Variable Wind from South

Today
High -- | Low -- °F
--% Chance of Precip.
Yesterday
High -- | Low -- °F
Precip. -- in
Pressure 30.18 in
Visibility 6.2 miles
Clouds Few 3600 ft
Dew Point 52 °F
Humidity 41%
Rainfall 0.00 in
Snow Depth Not available.
7:00 AM 6:48 PM
Waning Crescent, 0% visible
METAR LTBA 301050Z 17006KT 130V250 9999 FEW036 25/11 Q1022 NOSIG RMK RWY17L 17005KT 140V210 RWY05 15005KT 110V210 RWY23 00000KT
Pressure 30.18 in
Visibility 6.2 miles
Clouds Few 3600 ft
Dew Point 52 °F
Humidity 41%
Rainfall 0.00 in
Snow Depth Not available.
7:00 AM 6:48 PM
Waning Crescent, 0% visible
METAR LTBA 301050Z 17006KT 130V250 9999 FEW036 25/11 Q1022 NOSIG RMK RWY17L 17005KT 140V210 RWY05 15005KT 110V210 RWY23 00000KT

10-Day Weather Forecast

×

Almanac

Astronomy

Sep. 30, 2016 Rise Set
Actual Time
Civil Twilight
Nautical Twilight
Astronomical Twilight
Moon
Length of Visible Light
Length of Day
Tomorrow will be .
, % of the Moon is Illuminated

Today's Extremes

Country Highs Country Lows

Community

WunderPhotos

Upload Photos

1,942,694 photos uploaded!

WunderBlog® & News

Nearby

Air Quality

  Air Quality AQ Index Pollutant
Not available.

Snow Depth

Station Depth Elevation

Earthquake Activity

City Distance Mag. Time & Date
Minimum magnitude displayed is 2.5.

Coastal Water Temperatures

Place Temperature

Stations

Nearby Weather Stations

Station Location Temp. Windchill Dew Point Humidity Wind Precip. Elev Updated Type